sensor_id;sensor_type;location;lat;lon;timestamp;pressure;altitude;pressure_sealevel;temperature;humidity
78117;BME280;69042;59.120;37.904;2023-09-19T00:00:56;100755.16;;;12.26;62.50
78117;BME280;69042;59.120;37.904;2023-09-19T00:03:22;100761.25;;;12.26;62.28
78117;BME280;69042;59.120;37.904;2023-09-19T00:05:48;100763.88;;;12.26;62.48
78117;BME280;69042;59.120;37.904;2023-09-19T00:08:16;100751.69;;;12.25;62.46
78117;BME280;69042;59.120;37.904;2023-09-19T00:10:43;100755.16;;;12.26;62.59
78117;BME280;69042;59.120;37.904;2023-09-19T00:13:09;100751.69;;;12.25;62.36
78117;BME280;69042;59.120;37.904;2023-09-19T00:15:43;100745.66;;;12.23;62.13
78117;BME280;69042;59.120;37.904;2023-09-19T00:18:14;100742.25;;;12.21;62.16
78117;BME280;69042;59.120;37.904;2023-09-19T00:20:41;100733.53;;;12.21;62.13
78117;BME280;69042;59.120;37.904;2023-09-19T00:23:08;100733.63;;;12.18;62.11
78117;BME280;69042;59.120;37.904;2023-09-19T00:25:35;100734.56;;;12.17;62.08
78117;BME280;69042;59.120;37.904;2023-09-19T00:28:04;100725.09;;;12.13;62.07
78117;BME280;69042;59.120;37.904;2023-09-19T00:30:30;100725.22;;;12.10;62.14
78117;BME280;69042;59.120;37.904;2023-09-19T00:32:56;100721.16;;;12.02;61.95
78117;BME280;69042;59.120;37.904;2023-09-19T00:35:23;100732.53;;;12.01;62.02
78117;BME280;69042;59.120;37.904;2023-09-19T00:37:53;100727.31;;;12.00;62.03
78117;BME280;69042;59.120;37.904;2023-09-19T00:40:20;100723.16;;;11.96;61.96
78117;BME280;69042;59.120;37.904;2023-09-19T00:42:48;100731.00;;;11.96;62.03
78117;BME280;69042;59.120;37.904;2023-09-19T00:45:16;100732.81;;;11.94;62.05
78117;BME280;69042;59.120;37.904;2023-09-19T00:48:09;100729.41;;;11.92;62.08
78117;BME280;69042;59.120;37.904;2023-09-19T00:50:35;100726.78;;;11.92;62.21
78117;BME280;69042;59.120;37.904;2023-09-19T00:53:02;100733.84;;;11.90;62.27
78117;BME280;69042;59.120;37.904;2023-09-19T00:55:39;100732.06;;;11.90;62.26
78117;BME280;69042;59.120;37.904;2023-09-19T00:58:06;100733.81;;;11.91;62.32
78117;BME280;69042;59.120;37.904;2023-09-19T01:00:33;100732.06;;;11.90;62.65
78117;BME280;69042;59.120;37.904;2023-09-19T01:03:00;100731.19;;;11.91;62.52
78117;BME280;69042;59.120;37.904;2023-09-19T01:05:29;100737.25;;;11.92;62.13
78117;BME280;69042;59.120;37.904;2023-09-19T01:07:55;100734.56;;;11.93;62.43
78117;BME280;69042;59.120;37.904;2023-09-19T01:10:22;100731.91;;;11.95;62.20
78117;BME280;69042;59.120;37.904;2023-09-19T01:12:58;100739.72;;;11.96;62.41
78117;BME280;69042;59.120;37.904;2023-09-19T01:18:34;100722.97;;;12.00;62.40
78117;BME280;69042;59.120;37.904;2023-09-19T01:29:48;100715.47;;;11.91;62.29
78117;BME280;69042;59.120;37.904;2023-09-19T01:32:19;100709.47;;;11.87;62.25
78117;BME280;69042;59.120;37.904;2023-09-19T01:34:57;100711.31;;;11.84;62.31
78117;BME280;69042;59.120;37.904;2023-09-19T01:37:30;100707.84;;;11.83;62.34
78117;BME280;69042;59.120;37.904;2023-09-19T01:40:04;100700.13;;;11.80;62.49
78117;BME280;69042;59.120;37.904;2023-09-19T01:42:44;100701.16;;;11.76;62.73
78117;BME280;69042;59.120;37.904;2023-09-19T01:45:12;100698.56;;;11.75;62.67
78117;BME280;69042;59.120;37.904;2023-09-19T01:47:51;100695.09;;;11.74;62.80
78117;BME280;69042;59.120;37.904;2023-09-19T01:53:24;100695.16;;;11.73;62.76
78117;BME280;69042;59.120;37.904;2023-09-19T01:55:51;100690.00;;;11.71;62.76
78117;BME280;69042;59.120;37.904;2023-09-19T02:00:48;100686.63;;;11.67;62.80
78117;BME280;69042;59.120;37.904;2023-09-19T02:03:16;100681.53;;;11.64;62.90
78117;BME280;69042;59.120;37.904;2023-09-19T02:05:48;100677.44;;;11.57;63.08
78117;BME280;69042;59.120;37.904;2023-09-19T02:08:17;100675.66;;;11.58;63.11
78117;BME280;69042;59.120;37.904;2023-09-19T02:10:45;100686.13;;;11.58;63.10
78117;BME280;69042;59.120;37.904;2023-09-19T02:13:19;100680.09;;;11.56;63.38
78117;BME280;69042;59.120;37.904;2023-09-19T02:15:45;100671.50;;;11.52;63.31
78117;BME280;69042;59.120;37.904;2023-09-19T02:18:13;100684.66;;;11.51;63.52
78117;BME280;69042;59.120;37.904;2023-09-19T02:20:40;100678.53;;;11.50;63.60
78117;BME280;69042;59.120;37.904;2023-09-19T02:23:07;100672.47;;;11.50;63.81
78117;BME280;69042;59.120;37.904;2023-09-19T02:25:34;100669.00;;;11.49;63.72
78117;BME280;69042;59.120;37.904;2023-09-19T02:28:01;100672.50;;;11.48;64.00
78117;BME280;69042;59.120;37.904;2023-09-19T02:30:29;100660.22;;;11.50;64.04
78117;BME280;69042;59.120;37.904;2023-09-19T02:32:56;100660.19;;;11.52;64.06
78117;BME280;69042;59.120;37.904;2023-09-19T02:35:22;100663.59;;;11.54;63.94
78117;BME280;69042;59.120;37.904;2023-09-19T02:37:48;100658.22;;;11.57;64.01
78117;BME280;69042;59.120;37.904;2023-09-19T02:40:15;100658.19;;;11.58;64.32
78117;BME280;69042;59.120;37.904;2023-09-19T02:42:46;100629.91;;;11.44;64.01
78117;BME280;69042;59.120;37.904;2023-09-19T02:45:16;100656.25;;;11.63;64.06
78117;BME280;69042;59.120;37.904;2023-09-19T02:47:46;100660.59;;;11.64;63.97
78117;BME280;69042;59.120;37.904;2023-09-19T02:50:14;100655.34;;;11.64;63.95
78117;BME280;69042;59.120;37.904;2023-09-19T02:52:42;100653.63;;;11.63;64.00
78117;BME280;69042;59.120;37.904;2023-09-19T02:55:13;100657.97;;;11.64;64.13
78117;BME280;69042;59.120;37.904;2023-09-19T02:57:48;100652.78;;;11.63;64.36
78117;BME280;69042;59.120;37.904;2023-09-19T03:00:15;100657.00;;;11.67;64.28
78117;BME280;69042;59.120;37.904;2023-09-19T03:02:42;100657.78;;;11.69;64.57
78117;BME280;69042;59.120;37.904;2023-09-19T03:05:09;100654.25;;;11.70;64.52
78117;BME280;69042;59.120;37.904;2023-09-19T03:07:38;100654.19;;;11.72;64.51
78117;BME280;69042;59.120;37.904;2023-09-19T03:10:08;100656.81;;;11.72;64.81
78117;BME280;69042;59.120;37.904;2023-09-19T03:12:35;100653.28;;;11.73;64.80
78117;BME280;69042;59.120;37.904;2023-09-19T03:15:02;100648.84;;;11.75;64.91
78117;BME280;69042;59.120;37.904;2023-09-19T03:17:31;100654.81;;;11.78;65.05
78117;BME280;69042;59.120;37.904;2023-09-19T03:19:59;100663.47;;;11.80;65.14
78117;BME280;69042;59.120;37.904;2023-09-19T03:22:26;100656.28;;;11.85;65.28
78117;BME280;69042;59.120;37.904;2023-09-19T03:24:53;100654.44;;;11.89;65.33
78117;BME280;69042;59.120;37.904;2023-09-19T03:27:20;100657.69;;;11.96;65.58
78117;BME280;69042;59.120;37.904;2023-09-19T03:29:47;100656.63;;;12.00;65.75
78117;BME280;69042;59.120;37.904;2023-09-19T03:32:13;100662.56;;;12.05;65.87
78117;BME280;69042;59.120;37.904;2023-09-19T03:34:40;100647.53;;;12.08;65.42
78117;BME280;69042;59.120;37.904;2023-09-19T03:37:09;100649.00;;;12.16;66.07
78117;BME280;69042;59.120;37.904;2023-09-19T03:39:36;100644.50;;;12.19;66.10
78117;BME280;69042;59.120;37.904;2023-09-19T03:42:02;100647.72;;;12.26;66.28
78117;BME280;69042;59.120;37.904;2023-09-19T03:44:30;100645.91;;;12.28;66.20
78117;BME280;69042;59.120;37.904;2023-09-19T03:46:56;100651.00;;;12.31;66.36
78117;BME280;69042;59.120;37.904;2023-09-19T03:49:23;100646.50;;;12.35;66.41
78117;BME280;69042;59.120;37.904;2023-09-19T03:51:49;100646.28;;;12.41;66.27
78117;BME280;69042;59.120;37.904;2023-09-19T03:54:15;100645.94;;;12.48;66.21
78117;BME280;69042;59.120;37.904;2023-09-19T03:56:43;100645.59;;;12.56;66.35
78117;BME280;69042;59.120;37.904;2023-09-19T03:59:09;100644.50;;;12.62;66.30
78117;BME280;69042;59.120;37.904;2023-09-19T04:01:35;100637.28;;;12.67;66.22
78117;BME280;69042;59.120;37.904;2023-09-19T04:04:02;100637.03;;;12.73;66.10
78117;BME280;69042;59.120;37.904;2023-09-19T04:06:35;100629.81;;;12.78;66.23
78117;BME280;69042;59.120;37.904;2023-09-19T04:09:03;100630.63;;;12.80;66.06
78117;BME280;69042;59.120;37.904;2023-09-19T04:11:30;100634.75;;;12.86;66.16
78117;BME280;69042;59.120;37.904;2023-09-19T04:13:57;100626.75;;;12.89;66.36
78117;BME280;69042;59.120;37.904;2023-09-19T04:16:23;100633.56;;;12.93;66.29
78117;BME280;69042;59.120;37.904;2023-09-19T04:18:49;100622.97;;;12.95;66.50
78117;BME280;69042;59.120;37.904;2023-09-19T04:21:16;100628.91;;;13.00;66.68
78117;BME280;69042;59.120;37.904;2023-09-19T04:23:43;100628.81;;;13.01;66.64
78117;BME280;69042;59.120;37.904;2023-09-19T04:26:09;100623.47;;;13.04;66.76
78117;BME280;69042;59.120;37.904;2023-09-19T04:28:35;100632.13;;;13.06;66.76
78117;BME280;69042;59.120;37.904;2023-09-19T04:31:04;100630.28;;;13.08;66.64
78117;BME280;69042;59.120;37.904;2023-09-19T04:33:30;100633.00;;;13.05;66.51
78117;BME280;69042;59.120;37.904;2023-09-19T04:35:56;100630.53;;;13.02;66.56
78117;BME280;69042;59.120;37.904;2023-09-19T04:38:23;100634.06;;;13.01;66.83
78117;BME280;69042;59.120;37.904;2023-09-19T04:40:49;100630.75;;;12.98;67.00
78117;BME280;69042;59.120;37.904;2023-09-19T04:43:15;100636.03;;;12.96;66.95
78117;BME280;69042;59.120;37.904;2023-09-19T04:45:42;100629.91;;;12.97;67.16
78117;BME280;69042;59.120;37.904;2023-09-19T04:48:08;100629.91;;;12.97;67.08
78117;BME280;69042;59.120;37.904;2023-09-19T04:50:34;100632.31;;;13.02;67.04
78117;BME280;69042;59.120;37.904;2023-09-19T04:53:01;100634.78;;;13.05;67.16
78117;BME280;69042;59.120;37.904;2023-09-19T04:55:27;100623.47;;;13.04;66.87
78117;BME280;69042;59.120;37.904;2023-09-19T04:57:53;100631.97;;;13.09;66.87
78117;BME280;69042;59.120;37.904;2023-09-19T05:00:22;100626.72;;;13.09;66.84
78117;BME280;69042;59.120;37.904;2023-09-19T05:02:57;100620.56;;;13.10;67.23
78117;BME280;69042;59.120;37.904;2023-09-19T05:05:23;100630.06;;;13.13;67.01
78117;BME280;69042;59.120;37.904;2023-09-19T05:07:51;100628.88;;;13.20;67.10
78117;BME280;69042;59.120;37.904;2023-09-19T05:10:20;100625.09;;;13.26;66.82
78117;BME280;69042;59.120;37.904;2023-09-19T05:12:46;100625.91;;;13.28;66.58
78117;BME280;69042;59.120;37.904;2023-09-19T05:15:14;100624.88;;;13.32;66.56
78117;BME280;69042;59.120;37.904;2023-09-19T05:17:50;100615.94;;;13.36;66.45
78117;BME280;69042;59.120;37.904;2023-09-19T05:20:18;100619.06;;;13.44;66.30
78117;BME280;69042;59.120;37.904;2023-09-19T05:25:30;100607.16;;;13.56;65.99
78117;BME280;69042;59.120;37.904;2023-09-19T05:27:58;100601.69;;;13.61;65.71
78117;BME280;69042;59.120;37.904;2023-09-19T05:30:25;100599.75;;;13.64;65.77
78117;BME280;69042;59.120;37.904;2023-09-19T05:32:53;100598.84;;;13.65;65.13
78117;BME280;69042;59.120;37.904;2023-09-19T05:35:20;100592.09;;;13.60;65.23
78117;BME280;69042;59.120;37.904;2023-09-19T05:37:50;100591.25;;;13.59;65.20
78117;BME280;69042;59.120;37.904;2023-09-19T05:40:18;100585.16;;;13.59;64.97
78117;BME280;69042;59.120;37.904;2023-09-19T05:42:45;100591.41;;;13.56;65.05
78117;BME280;69042;59.120;37.904;2023-09-19T05:45:12;100599.41;;;13.53;64.92
78117;BME280;69042;59.120;37.904;2023-09-19T05:47:41;100583.81;;;13.50;64.67
78117;BME280;69042;59.120;37.904;2023-09-19T05:50:11;100589.09;;;13.48;64.65
78117;BME280;69042;59.120;37.904;2023-09-19T05:52:38;100584.81;;;13.47;64.36
78117;BME280;69042;59.120;37.904;2023-09-19T05:55:05;100589.25;;;13.45;64.29
78117;BME280;69042;59.120;37.904;2023-09-19T05:57:37;100591.94;;;13.44;64.08
78117;BME280;69042;59.120;37.904;2023-09-19T06:00:06;100585.91;;;13.42;63.86
78117;BME280;69042;59.120;37.904;2023-09-19T06:02:38;100582.53;;;13.40;63.91
78117;BME280;69042;59.120;37.904;2023-09-19T06:05:05;100577.28;;;13.40;64.14
78117;BME280;69042;59.120;37.904;2023-09-19T06:07:37;100567.63;;;13.40;63.98
78117;BME280;69042;59.120;37.904;2023-09-19T06:10:04;100558.81;;;13.41;64.11
78117;BME280;69042;59.120;37.904;2023-09-19T06:12:39;100569.09;;;13.46;63.50
78117;BME280;69042;59.120;37.904;2023-09-19T06:15:06;100563.00;;;13.45;63.71
78117;BME280;69042;59.120;37.904;2023-09-19T06:17:35;100557.75;;;13.45;63.36
78117;BME280;69042;59.120;37.904;2023-09-19T06:20:07;100558.69;;;13.44;63.35
78117;BME280;69042;59.120;37.904;2023-09-19T06:22:41;100566.56;;;13.44;63.19
78117;BME280;69042;59.120;37.904;2023-09-19T06:25:09;100558.75;;;13.43;63.23
78117;BME280;69042;59.120;37.904;2023-09-19T06:27:38;100562.44;;;13.39;63.18
78117;BME280;69042;59.120;37.904;2023-09-19T06:30:09;100559.75;;;13.40;63.23
78117;BME280;69042;59.120;37.904;2023-09-19T06:32:37;100554.41;;;13.42;63.23
78117;BME280;69042;59.120;37.904;2023-09-19T06:35:04;100550.88;;;13.43;63.25
78117;BME280;69042;59.120;37.904;2023-09-19T06:37:34;100536.91;;;13.42;63.28
78117;BME280;69042;59.120;37.904;2023-09-19T06:40:07;100542.84;;;13.46;63.49
78117;BME280;69042;59.120;37.904;2023-09-19T06:42:46;100543.41;;;13.52;63.52
78117;BME280;69042;59.120;37.904;2023-09-19T06:45:13;100542.97;;;13.62;63.90
78117;BME280;69042;59.120;37.904;2023-09-19T06:47:48;100539.00;;;13.72;63.46
78117;BME280;69042;59.120;37.904;2023-09-19T06:50:20;100529.19;;;13.75;63.33
78117;BME280;69042;59.120;37.904;2023-09-19T06:52:49;100525.41;;;13.81;63.61
78117;BME280;69042;59.120;37.904;2023-09-19T06:55:17;100536.47;;;13.88;63.49
78117;BME280;69042;59.120;37.904;2023-09-19T06:57:48;100534.47;;;13.93;63.09
78117;BME280;69042;59.120;37.904;2023-09-19T07:00:17;100534.22;;;13.98;63.19
78117;BME280;69042;59.120;37.904;2023-09-19T07:02:57;100526.91;;;14.04;63.27
78117;BME280;69042;59.120;37.904;2023-09-19T07:05:24;100524.59;;;14.15;63.10
78117;BME280;69042;59.120;37.904;2023-09-19T07:07:51;100520.81;;;14.21;63.27
78117;BME280;69042;59.120;37.904;2023-09-19T07:10:17;100520.47;;;14.27;63.15
78117;BME280;69042;59.120;37.904;2023-09-19T07:12:44;100525.44;;;14.33;63.06
78117;BME280;69042;59.120;37.904;2023-09-19T07:15:10;100517.31;;;14.38;63.07
78117;BME280;69042;59.120;37.904;2023-09-19T07:17:36;100524.28;;;14.39;62.74
78117;BME280;69042;59.120;37.904;2023-09-19T07:20:03;100512.16;;;14.36;62.57
78117;BME280;69042;59.120;37.904;2023-09-19T07:22:34;100506.13;;;14.34;62.52
78117;BME280;69042;59.120;37.904;2023-09-19T07:25:00;100511.81;;;14.43;62.87
78117;BME280;69042;59.120;37.904;2023-09-19T07:27:27;100511.50;;;14.49;62.67
78117;BME280;69042;59.120;37.904;2023-09-19T07:29:53;100504.09;;;14.57;62.66
78117;BME280;69042;59.120;37.904;2023-09-19T07:32:20;100498.44;;;14.65;62.67
78117;BME280;69042;59.120;37.904;2023-09-19T07:34:46;100499.31;;;14.81;62.39
78117;BME280;69042;59.120;37.904;2023-09-19T07:37:12;100502.13;;;14.94;62.15
78117;BME280;69042;59.120;37.904;2023-09-19T07:39:41;100501.47;;;15.06;61.93
78117;BME280;69042;59.120;37.904;2023-09-19T07:42:08;100492.22;;;15.15;61.70
78117;BME280;69042;59.120;37.904;2023-09-19T07:44:41;100490.84;;;15.24;61.34
78117;BME280;69042;59.120;37.904;2023-09-19T07:47:16;100484.41;;;15.29;61.18
78117;BME280;69042;59.120;37.904;2023-09-19T08:03:44;100483.81;;;15.08;60.45
78117;BME280;69042;59.120;37.904;2023-09-19T08:06:11;100490.00;;;15.07;60.36
78117;BME280;69042;59.120;37.904;2023-09-19T08:08:37;100481.09;;;15.10;60.45
78117;BME280;69042;59.120;37.904;2023-09-19T08:11:04;100490.44;;;15.15;60.44
78117;BME280;69042;59.120;37.904;2023-09-19T08:13:50;100479.66;;;15.20;60.39
78117;BME280;69042;59.120;37.904;2023-09-19T08:16:16;100475.91;;;15.24;60.20
78117;BME280;69042;59.120;37.904;2023-09-19T08:18:47;100479.41;;;15.25;59.87
78117;BME280;69042;59.120;37.904;2023-09-19T08:21:13;100480.44;;;15.22;59.80
78117;BME280;69042;59.120;37.904;2023-09-19T08:23:40;100470.75;;;15.23;59.70
78117;BME280;69042;59.120;37.904;2023-09-19T08:26:06;100482.19;;;15.22;59.80
78117;BME280;69042;59.120;37.904;2023-09-19T08:28:37;100473.28;;;15.24;59.90
78117;BME280;69042;59.120;37.904;2023-09-19T08:31:08;100471.41;;;15.26;59.71
78117;BME280;69042;59.120;37.904;2023-09-19T08:33:34;100467.69;;;15.30;59.76
78117;BME280;69042;59.120;37.904;2023-09-19T08:36:02;100471.16;;;15.31;59.78
78117;BME280;69042;59.120;37.904;2023-09-19T08:38:34;100460.53;;;15.32;59.51
78117;BME280;69042;59.120;37.904;2023-09-19T08:41:05;100453.34;;;15.36;59.56
78117;BME280;69042;59.120;37.904;2023-09-19T08:43:32;100445.25;;;15.39;59.80
78117;BME280;69042;59.120;37.904;2023-09-19T08:48:34;100447.66;;;15.58;60.03
78117;BME280;69042;59.120;37.904;2023-09-19T08:51:06;100428.59;;;15.69;59.75
78117;BME280;69042;59.120;37.904;2023-09-19T08:53:47;100428.03;;;15.79;60.01
78117;BME280;69042;59.120;37.904;2023-09-19T08:56:18;100423.81;;;15.91;59.96
78117;BME280;69042;59.120;37.904;2023-09-19T08:58:46;100418.84;;;16.01;59.76
78117;BME280;69042;59.120;37.904;2023-09-19T09:01:16;100419.91;;;16.13;59.56
78117;BME280;69042;59.120;37.904;2023-09-19T09:03:55;100410.38;;;16.24;59.54
78117;BME280;69042;59.120;37.904;2023-09-19T09:06:24;100397.31;;;16.37;59.44
78117;BME280;69042;59.120;37.904;2023-09-19T09:08:52;100400.13;;;16.49;59.20
78117;BME280;69042;59.120;37.904;2023-09-19T09:11:19;100403.25;;;16.55;58.55
78117;BME280;69042;59.120;37.904;2023-09-19T09:13:47;100407.63;;;16.55;58.40
78117;BME280;69042;59.120;37.904;2023-09-19T09:16:14;100405.75;;;16.57;58.05
78117;BME280;69042;59.120;37.904;2023-09-19T09:18:45;100404.28;;;16.53;57.64
78117;BME280;69042;59.120;37.904;2023-09-19T09:21:12;100402.78;;;16.49;57.62
78117;BME280;69042;59.120;37.904;2023-09-19T09:23:41;100400.31;;;16.45;57.72
78117;BME280;69042;59.120;37.904;2023-09-19T09:26:08;100403.81;;;16.46;57.37
78117;BME280;69042;59.120;37.904;2023-09-19T09:28:35;100403.13;;;16.42;57.18
78117;BME280;69042;59.120;37.904;2023-09-19T09:31:24;100380.63;;;16.37;57.10
78117;BME280;69042;59.120;37.904;2023-09-19T09:33:55;100379.03;;;16.34;57.34
78117;BME280;69042;59.120;37.904;2023-09-19T09:36:35;100376.66;;;16.30;57.30
78117;BME280;69042;59.120;37.904;2023-09-19T09:39:03;100385.53;;;16.29;57.20
78117;BME280;69042;59.120;37.904;2023-09-19T09:41:42;100376.19;;;16.23;56.99
78117;BME280;69042;59.120;37.904;2023-09-19T09:44:17;100364.25;;;16.17;57.24
78117;BME280;69042;59.120;37.904;2023-09-19T09:46:48;100368.97;;;16.12;57.35
78117;BME280;69042;59.120;37.904;2023-09-19T09:49:24;100387.31;;;16.14;57.47
78117;BME280;69042;59.120;37.904;2023-09-19T09:52:04;100378.75;;;16.24;57.76
78117;BME280;69042;59.120;37.904;2023-09-19T09:54:35;100374.34;;;16.39;58.18
78117;BME280;69042;59.120;37.904;2023-09-19T09:57:07;100369.41;;;16.62;58.31
78117;BME280;69042;59.120;37.904;2023-09-19T10:00:06;100365.69;;;16.93;57.85
78117;BME280;69042;59.120;37.904;2023-09-19T10:02:39;100359.38;;;17.09;57.87
78117;BME280;69042;59.120;37.904;2023-09-19T10:05:18;100365.56;;;17.22;57.41
78117;BME280;69042;59.120;37.904;2023-09-19T10:07:55;100368.78;;;17.40;57.50
78117;BME280;69042;59.120;37.904;2023-09-19T10:10:36;100358.81;;;17.71;57.51
78117;BME280;69042;59.120;37.904;2023-09-19T10:13:20;100358.50;;;18.01;57.50
78117;BME280;69042;59.120;37.904;2023-09-19T10:15:51;100344.97;;;18.18;57.06
78117;BME280;69042;59.120;37.904;2023-09-19T10:18:23;100350.66;;;18.38;56.59
78117;BME280;69042;59.120;37.904;2023-09-19T10:20:51;100359.44;;;18.51;55.73
78117;BME280;69042;59.120;37.904;2023-09-19T10:23:19;100337.78;;;18.57;55.78
78117;BME280;69042;59.120;37.904;2023-09-19T10:25:50;100324.13;;;18.63;55.36
78117;BME280;69042;59.120;37.904;2023-09-19T10:28:18;100318.09;;;18.61;54.85
78117;BME280;69042;59.120;37.904;2023-09-19T10:30:49;100321.06;;;18.57;54.36
78117;BME280;69042;59.120;37.904;2023-09-19T10:33:21;100318.88;;;18.50;54.65
78117;BME280;69042;59.120;37.904;2023-09-19T10:35:49;100311.72;;;18.40;54.45
78117;BME280;69042;59.120;37.904;2023-09-19T10:38:26;100324.88;;;18.28;54.43
78117;BME280;69042;59.120;37.904;2023-09-19T10:40:55;100328.13;;;18.19;54.60
78117;BME280;69042;59.120;37.904;2023-09-19T10:43:29;100318.84;;;18.14;54.41
78117;BME280;69042;59.120;37.904;2023-09-19T10:46:01;100310.50;;;18.20;55.27
78117;BME280;69042;59.120;37.904;2023-09-19T10:48:29;100310.53;;;18.44;55.21
78117;BME280;69042;59.120;37.904;2023-09-19T10:53:45;100309.44;;;18.96;54.68
78117;BME280;69042;59.120;37.904;2023-09-19T10:56:19;100313.22;;;19.16;54.21
78117;BME280;69042;59.120;37.904;2023-09-19T10:58:48;100315.44;;;19.33;53.93
78117;BME280;69042;59.120;37.904;2023-09-19T11:01:15;100309.97;;;19.48;53.38
78117;BME280;69042;59.120;37.904;2023-09-19T11:03:43;100313.22;;;19.63;53.15
78117;BME280;69042;59.120;37.904;2023-09-19T11:06:22;100300.63;;;19.78;52.54
78117;BME280;69042;59.120;37.904;2023-09-19T11:08:52;100296.53;;;19.96;52.83
78117;BME280;69042;59.120;37.904;2023-09-19T11:11:54;100305.09;;;20.22;52.00
78117;BME280;69042;59.120;37.904;2023-09-19T11:30:32;100282.38;;;21.16;49.64
78117;BME280;69042;59.120;37.904;2023-09-19T11:33:32;100271.91;;;21.15;49.80
78117;BME280;69042;59.120;37.904;2023-09-19T11:36:11;100263.88;;;21.26;49.67
78117;BME280;69042;59.120;37.904;2023-09-19T11:43:47;100243.00;;;23.22;48.33
78117;BME280;69042;59.120;37.904;2023-09-19T11:46:13;100245.81;;;23.31;46.98
78117;BME280;69042;59.120;37.904;2023-09-19T11:48:48;100244.00;;;23.12;46.29
78117;BME280;69042;59.120;37.904;2023-09-19T11:51:21;100244.41;;;22.97;46.44
78117;BME280;69042;59.120;37.904;2023-09-19T11:53:55;100232.91;;;22.87;46.37
78117;BME280;69042;59.120;37.904;2023-09-19T11:56:25;100228.00;;;22.82;46.37
78117;BME280;69042;59.120;37.904;2023-09-19T11:58:57;100227.59;;;23.26;47.51
78117;BME280;69042;59.120;37.904;2023-09-19T12:01:29;100222.75;;;23.86;46.40
78117;BME280;69042;59.120;37.904;2023-09-19T12:03:57;100221.47;;;23.90;45.13
78117;BME280;69042;59.120;37.904;2023-09-19T12:06:27;100215.19;;;24.09;45.08
78117;BME280;69042;59.120;37.904;2023-09-19T12:08:56;100215.41;;;24.80;45.20
78117;BME280;69042;59.120;37.904;2023-09-19T12:11:29;100209.41;;;25.48;44.00
78117;BME280;69042;59.120;37.904;2023-09-19T12:13:59;100192.59;;;25.64;42.26
78117;BME280;69042;59.120;37.904;2023-09-19T12:16:27;100201.66;;;25.37;41.55
78117;BME280;69042;59.120;37.904;2023-09-19T12:18:56;100194.25;;;24.86;41.79
78117;BME280;69042;59.120;37.904;2023-09-19T12:21:28;100195.78;;;24.35;41.43
78117;BME280;69042;59.120;37.904;2023-09-19T12:24:04;100192.75;;;23.75;42.13
78117;BME280;69042;59.120;37.904;2023-09-19T12:26:40;100185.34;;;23.21;42.48
78117;BME280;69042;59.120;37.904;2023-09-19T12:29:14;100179.78;;;22.76;43.06
78117;BME280;69042;59.120;37.904;2023-09-19T12:32:07;100177.53;;;22.22;43.82
78117;BME280;69042;59.120;37.904;2023-09-19T12:34:33;100175.47;;;21.86;43.99
78117;BME280;69042;59.120;37.904;2023-09-19T12:37:08;100167.78;;;21.52;44.85
78117;BME280;69042;59.120;37.904;2023-09-19T12:39:39;100166.34;;;21.17;45.15
78117;BME280;69042;59.120;37.904;2023-09-19T12:42:09;100156.25;;;20.90;46.02
78117;BME280;69042;59.120;37.904;2023-09-19T12:44:41;100155.28;;;20.70;46.35
78117;BME280;69042;59.120;37.904;2023-09-19T12:47:10;100145.19;;;20.52;46.54
78117;BME280;69042;59.120;37.904;2023-09-19T12:49:54;100143.69;;;20.38;47.32
78117;BME280;69042;59.120;37.904;2023-09-19T12:52:23;100153.28;;;20.18;46.95
78117;BME280;69042;59.120;37.904;2023-09-19T12:54:51;100146.69;;;19.90;47.56
78117;BME280;69042;59.120;37.904;2023-09-19T12:57:24;100143.72;;;19.61;48.21
78117;BME280;69042;59.120;37.904;2023-09-19T12:59:55;100143.72;;;19.39;48.64
78117;BME280;69042;59.120;37.904;2023-09-19T13:02:21;100139.25;;;19.17;48.97
78117;BME280;69042;59.120;37.904;2023-09-19T13:04:53;100134.41;;;18.99;49.33
78117;BME280;69042;59.120;37.904;2023-09-19T13:07:45;100130.53;;;18.81;49.38
78117;BME280;69042;59.120;37.904;2023-09-19T13:10:16;100123.81;;;18.64;49.82
78117;BME280;69042;59.120;37.904;2023-09-19T13:12:43;100131.00;;;18.50;50.35
78117;BME280;69042;59.120;37.904;2023-09-19T13:15:14;100129.19;;;18.40;50.44
78117;BME280;69042;59.120;37.904;2023-09-19T13:17:46;100126.69;;;18.25;50.54
78117;BME280;69042;59.120;37.904;2023-09-19T13:20:26;100113.31;;;18.16;51.11
78117;BME280;69042;59.120;37.904;2023-09-19T13:22:58;100128.69;;;18.10;51.16
78117;BME280;69042;59.120;37.904;2023-09-19T13:25:34;100131.88;;;18.03;51.31
78117;BME280;69042;59.120;37.904;2023-09-19T13:28:01;100122.69;;;17.96;51.81
78117;BME280;69042;59.120;37.904;2023-09-19T13:30:30;100118.94;;;17.87;51.99
78117;BME280;69042;59.120;37.904;2023-09-19T13:33:11;100112.28;;;17.81;51.90
78117;BME280;69042;59.120;37.904;2023-09-19T13:35:38;100108.06;;;17.79;51.92
78117;BME280;69042;59.120;37.904;2023-09-19T13:38:06;100106.25;;;17.79;52.38
78117;BME280;69042;59.120;37.904;2023-09-19T13:40:35;100095.97;;;17.87;52.61
78117;BME280;69042;59.120;37.904;2023-09-19T13:43:03;100095.53;;;17.94;52.71
78117;BME280;69042;59.120;37.904;2023-09-19T13:45:29;100088.22;;;17.97;52.75
78117;BME280;69042;59.120;37.904;2023-09-19T13:47:56;100095.94;;;18.00;52.55
78117;BME280;69042;59.120;37.904;2023-09-19T13:50:25;100089.81;;;18.00;52.84
78117;BME280;69042;59.120;37.904;2023-09-19T13:52:52;100079.44;;;17.97;52.38
78117;BME280;69042;59.120;37.904;2023-09-19T13:55:20;100077.13;;;17.92;52.82